Time;durP1;ratioP1;P1;durP2;ratioP2;P2;SDS_P1;SDS_P2;PMS_P1;PMS_P2;Temp;Humidity;BMP_temperature;BMP_pressure;BME280_temperature;BME280_humidity;BME280_pressure;Samples;Min_cycle;Max_cycle;Signal;HPM_P1;HPM_P2
2023/12/18 00:00:25;;;;;;;17.23;10.07;;;;;;;4.09;100.00;103053.88;6306333;22;20011;-83
2023/12/18 00:02:50;;;;;;;21.92;11.85;;;;;;;4.11;100.00;103059.91;6306535;22;20011;-84
2023/12/18 00:05:15;;;;;;;20.40;11.85;;;;;;;4.09;100.00;103042.44;6306121;22;20003;-83
2023/12/18 00:07:41;;;;;;;17.10;10.93;;;;;;;4.17;100.00;103051.47;6306123;22;20007;-82
2023/12/18 00:10:06;;;;;;;18.52;10.85;;;;;;;4.19;100.00;103046.91;6306475;22;20003;-83
2023/12/18 00:12:32;;;;;;;17.27;10.32;;;;;;;4.27;100.00;103055.09;6306113;22;20096;-82
2023/12/18 00:14:57;;;;;;;15.80;10.93;;;;;;;4.22;100.00;103056.41;6306318;22;20014;-84
2023/12/18 00:17:22;;;;;;;18.35;11.30;;;;;;;4.23;100.00;103058.94;6306186;22;19995;-83
2023/12/18 00:19:48;;;;;;;20.17;12.57;;;;;;;4.18;100.00;103047.88;6306091;22;20007;-83
2023/12/18 00:22:14;;;;;;;22.80;12.55;;;;;;;4.26;100.00;103052.56;6306204;22;20038;-83
2023/12/18 00:24:39;;;;;;;19.88;13.18;;;;;;;4.23;100.00;103036.94;6306339;22;20348;-82
2023/12/18 00:27:04;;;;;;;22.80;11.48;;;;;;;4.21;100.00;103038.84;6304573;22;20074;-82
2023/12/18 00:29:30;;;;;;;22.45;12.65;;;;;;;4.22;100.00;103043.19;6306096;22;20003;-85
2023/12/18 00:31:55;;;;;;;20.25;13.13;;;;;;;4.20;100.00;103039.81;6306256;22;20351;-84
2023/12/18 00:34:20;;;;;;;23.52;11.57;;;;;;;4.20;100.00;103043.31;6305999;22;20017;-84
2023/12/18 00:36:46;;;;;;;23.73;12.45;;;;;;;4.22;100.00;103043.19;6304301;22;20007;-84
2023/12/18 00:39:11;;;;;;;19.10;12.85;;;;;;;4.21;100.00;103041.50;6306520;22;20009;-84
2023/12/18 00:41:37;;;;;;;19.25;12.18;;;;;;;4.21;100.00;103039.69;6306158;22;20429;-85
2023/12/18 00:44:03;;;;;;;24.25;12.52;;;;;;;4.26;100.00;103042.81;6306150;22;20332;-84
2023/12/18 00:46:28;;;;;;;21.90;12.32;;;;;;;4.26;100.00;103037.53;6306159;22;20431;-85
2023/12/18 00:48:54;;;;;;;18.38;11.93;;;;;;;4.24;100.00;103034.16;6304523;22;20019;-85
2023/12/18 00:51:19;;;;;;;23.83;15.02;;;;;;;4.20;100.00;103027.41;6305999;22;20011;-84
2023/12/18 00:53:44;;;;;;;17.33;11.23;;;;;;;4.15;100.00;103013.69;6306019;22;20003;-84
2023/12/18 00:56:10;;;;;;;30.02;14.75;;;;;;;4.26;100.00;103026.09;6305973;22;20003;-83
2023/12/18 00:58:35;;;;;;;19.70;11.68;;;;;;;4.23;100.00;103031.63;6306099;22;20329;-83
2023/12/18 01:01:01;;;;;;;25.02;14.32;;;;;;;4.21;100.00;103029.09;6305945;22;20306;-82
2023/12/18 01:03:26;;;;;;;20.92;13.63;;;;;;;4.21;100.00;103033.56;6306065;22;20409;-83
2023/12/18 01:05:51;;;;;;;21.38;12.45;;;;;;;4.19;100.00;103027.53;6305972;22;20000;-83
2023/12/18 01:08:17;;;;;;;21.95;13.88;;;;;;;4.26;100.00;103026.94;6305825;22;20078;-84
2023/12/18 01:10:42;;;;;;;20.10;12.07;;;;;;;4.23;100.00;103018.38;6306026;22;20042;-85
2023/12/18 01:13:08;;;;;;;21.20;13.35;;;;;;;4.23;100.00;103013.09;6305979;22;20461;-84
2023/12/18 01:15:33;;;;;;;24.58;12.82;;;;;;;4.26;100.00;103023.44;6306088;22;20007;-84
2023/12/18 01:17:58;;;;;;;25.05;15.02;;;;;;;4.31;100.00;103021.28;6306196;22;20007;-84
2023/12/18 01:20:24;;;;;;;24.60;12.85;;;;;;;4.30;100.00;103030.19;6304445;22;20038;-85
2023/12/18 01:22:49;;;;;;;24.25;14.25;;;;;;;4.29;100.00;103017.91;6305739;22;20007;-84
2023/12/18 01:25:14;;;;;;;22.00;13.82;;;;;;;4.31;100.00;103010.69;6304166;22;20003;-83
2023/12/18 01:27:41;;;;;;;30.55;14.95;;;;;;;4.33;100.00;103001.66;6304390;22;20018;-82
2023/12/18 01:30:08;;;;;;;25.73;12.82;;;;;;;4.35;100.00;103006.84;6304005;22;20328;-82
2023/12/18 01:32:34;;;;;;;24.42;13.40;;;;;;;4.29;100.00;102996.72;6305744;22;20444;-82
2023/12/18 01:34:59;;;;;;;21.67;12.48;;;;;;;4.33;100.00;103014.06;6305861;22;19999;-83
2023/12/18 01:37:24;;;;;;;24.05;12.82;;;;;;;4.39;100.00;103020.72;6305830;22;20007;-81
2023/12/18 01:39:50;;;;;;;20.95;12.85;;;;;;;4.45;100.00;103015.75;6306018;22;20003;-81
2023/12/18 01:42:15;;;;;;;29.58;15.13;;;;;;;4.51;100.00;103030.31;6305931;22;20374;-82
2023/12/18 01:44:40;;;;;;;20.88;13.50;;;;;;;4.47;100.00;103026.25;6305999;22;20424;-81
2023/12/18 01:47:06;;;;;;;24.98;15.65;;;;;;;4.53;100.00;103023.09;6304427;22;20007;-80
2023/12/18 01:49:32;;;;;;;29.20;15.57;;;;;;;4.52;100.00;103019.59;6304262;22;20373;-83
2023/12/18 01:51:58;;;;;;;24.65;14.73;;;;;;;4.60;100.00;103021.66;6305779;22;20440;-83
2023/12/18 01:54:25;;;;;;;22.73;12.55;;;;;;;4.65;100.00;103020.34;6304176;22;20090;-83
2023/12/18 01:56:53;;;;;;;24.55;14.43;;;;;;;4.62;100.00;103017.91;6305658;22;20344;-83
2023/12/18 01:59:20;;;;;;;27.05;14.73;;;;;;;4.65;100.00;103024.81;6304086;22;20011;-84
2023/12/18 02:01:47;;;;;;;25.30;14.90;;;;;;;4.63;100.00;103026.72;6305773;22;20085;-85
2023/12/18 02:04:13;;;;;;;25.95;17.50;;;;;;;4.63;100.00;103024.94;6303466;22;20472;-83
2023/12/18 02:06:38;;;;;;;30.85;17.33;;;;;;;4.66;100.00;103007.94;6305592;22;20006;-82
2023/12/18 02:09:04;;;;;;;24.65;16.05;;;;;;;4.62;100.00;102998.53;6304050;22;20011;-83
2023/12/18 02:11:29;;;;;;;28.30;18.45;;;;;;;4.56;100.00;102996.38;6305583;22;20015;-85
2023/12/18 02:13:55;;;;;;;30.48;18.00;;;;;;;4.62;100.00;102996.72;6305518;22;20053;-83
2023/12/18 02:16:22;;;;;;;27.58;15.80;;;;;;;4.60;100.00;103001.28;6305643;22;20015;-83
2023/12/18 02:18:47;;;;;;;24.70;15.10;;;;;;;4.59;100.00;102999.59;6303800;22;20023;-84
2023/12/18 02:21:20;;;;;;;27.63;16.50;;;;;;;4.62;100.00;103009.97;6304156;22;20125;-84
2023/12/18 02:23:46;;;;;;;;;;;;;;;4.66;100.00;103006.13;6305986;22;20424;-83
2023/12/18 02:26:12;;;;;;;30.13;14.98;;;;;;;4.56;100.00;102999.00;6305599;22;19907;-83
2023/12/18 02:28:38;;;;;;;23.38;13.02;;;;;;;4.58;100.00;103000.56;6305469;22;20026;-83
2023/12/18 02:31:04;;;;;;;29.38;16.88;;;;;;;4.57;100.00;103008.66;6305315;22;20010;-85
2023/12/18 02:33:30;;;;;;;26.27;13.90;;;;;;;4.52;100.00;102987.81;6305403;22;20007;-84
2023/12/18 02:35:56;;;;;;;28.20;14.82;;;;;;;4.52;100.00;103000.22;6305394;22;20439;-85
2023/12/18 02:38:22;;;;;;;25.33;16.25;;;;;;;4.49;100.00;102987.22;6305296;22;20007;-83
2023/12/18 02:40:47;;;;;;;31.40;19.23;;;;;;;4.52;100.00;103002.88;6303715;22;20114;-82
2023/12/18 02:43:13;;;;;;;25.85;16.60;;;;;;;4.46;100.00;102998.91;6303680;22;20013;-83
2023/12/18 02:45:38;;;;;;;27.70;16.00;;;;;;;4.49;100.00;102997.81;6305270;22;20038;-82
2023/12/18 02:48:04;;;;;;;26.65;15.30;;;;;;;4.54;100.00;102987.69;6303639;22;20037;-83
2023/12/18 02:50:30;;;;;;;24.83;17.33;;;;;;;4.54;100.00;102980.59;6305194;22;20084;-83
2023/12/18 02:52:55;;;;;;;23.75;16.23;;;;;;;4.51;100.00;102978.19;6305255;22;20085;-86
2023/12/18 02:55:21;;;;;;;28.35;14.27;;;;;;;4.55;100.00;102979.63;6305215;22;20074;-85
2023/12/18 02:57:46;;;;;;;29.20;17.23;;;;;;;4.50;100.00;102971.22;6303588;22;20007;-85
2023/12/18 03:00:12;;;;;;;23.50;14.65;;;;;;;4.55;100.00;102976.97;6305320;22;20302;-84
2023/12/18 03:02:38;;;;;;;30.58;18.48;;;;;;;4.48;100.00;102951.94;6303623;22;20375;-84
2023/12/18 03:05:04;;;;;;;27.58;17.98;;;;;;;4.54;100.00;102959.41;6305163;22;20003;-83
2023/12/18 03:07:29;;;;;;;29.63;16.75;;;;;;;4.56;100.00;102952.16;6305900;22;20313;-85
2023/12/18 03:09:55;;;;;;;21.67;12.93;;;;;;;4.56;100.00;102960.13;6303471;22;20355;-85
2023/12/18 03:12:20;;;;;;;27.58;17.85;;;;;;;4.53;100.00;102948.94;6303194;22;20403;-85
2023/12/18 03:14:45;;;;;;;31.08;19.55;;;;;;;4.53;100.00;102956.88;6303386;22;20034;-84
2023/12/18 03:17:11;;;;;;;30.85;18.75;;;;;;;4.58;100.00;102957.34;6306362;22;20665;-84
2023/12/18 03:19:36;;;;;;;33.55;15.77;;;;;;;4.52;100.00;102953.38;6306370;22;20424;-85
2023/12/18 03:22:02;;;;;;;28.58;14.43;;;;;;;4.57;100.00;102972.41;6304771;22;20333;-83
2023/12/18 03:24:27;;;;;;;30.77;17.30;;;;;;;4.56;100.00;102957.47;6306331;22;20014;-83
2023/12/18 03:26:52;;;;;;;20.58;12.70;;;;;;;4.56;100.00;102967.22;6306422;22;20082;-83
2023/12/18 03:29:18;;;;;;;27.75;16.60;;;;;;;4.59;100.00;102970.47;6306533;22;20039;-85
2023/12/18 03:31:43;;;;;;;27.58;16.92;;;;;;;4.59;100.00;102969.63;6306448;22;20352;-84
2023/12/18 03:34:08;;;;;;;26.08;14.45;;;;;;;4.59;100.00;102962.53;6304722;22;20014;-84
2023/12/18 03:36:34;;;;;;;27.65;15.98;;;;;;;4.58;100.00;102954.69;6304954;22;19995;-84
2023/12/18 03:38:59;;;;;;;29.17;15.98;;;;;;;4.53;100.00;102962.16;6304545;22;20037;-81
2023/12/18 03:41:24;;;;;;;28.40;15.80;;;;;;;4.51;100.00;102958.81;6306304;22;20006;-85
2023/12/18 03:43:50;;;;;;;31.70;20.17;;;;;;;4.56;100.00;102967.22;6304840;22;20007;-84
2023/12/18 03:46:16;;;;;;;32.95;19.98;;;;;;;4.49;100.00;102958.94;6304611;22;20004;-83
2023/12/18 03:48:41;;;;;;;28.83;15.05;;;;;;;4.55;100.00;102955.78;6306306;22;20007;-85
2023/12/18 03:51:06;;;;;;;26.30;19.05;;;;;;;4.55;100.00;102966.38;6306285;22;20403;-82
2023/12/18 03:53:32;;;;;;;31.35;17.65;;;;;;;4.54;100.00;102966.50;6306226;22;20451;-84
2023/12/18 03:55:57;;;;;;;30.48;16.05;;;;;;;4.61;100.00;102976.47;6306567;22;20034;-86
2023/12/18 03:58:22;;;;;;;25.33;14.07;;;;;;;4.66;100.00;102970.84;6304615;22;20034;-83
2023/12/18 04:00:48;;;;;;;28.70;17.30;;;;;;;4.64;100.00;102970.13;6306243;22;20004;-83
2023/12/18 04:03:13;;;;;;;34.50;19.40;;;;;;;4.59;100.00;102966.97;6306152;22;20420;-83
2023/12/18 04:05:38;;;;;;;34.55;16.98;;;;;;;4.56;100.00;102965.41;6306239;22;20007;-82
2023/12/18 04:08:04;;;;;;;34.95;17.60;;;;;;;4.61;100.00;102965.88;6306204;22;20030;-82
2023/12/18 04:10:30;;;;;;;30.63;15.18;;;;;;;4.57;100.00;102955.66;6304690;22;20042;-83
2023/12/18 04:12:55;;;;;;;32.75;19.95;;;;;;;4.60;100.00;102958.91;6304335;22;20384;-85
2023/12/18 04:15:20;;;;;;;34.28;18.02;;;;;;;4.56;100.00;102965.41;6306095;22;20328;-81
2023/12/18 04:17:46;;;;;;;30.35;20.75;;;;;;;4.58;100.00;102957.34;6304619;22;20443;-83
2023/12/18 04:20:11;;;;;;;31.17;15.52;;;;;;;4.67;100.00;102951.31;6304397;22;20382;-82
2023/12/18 04:22:37;;;;;;;30.63;16.85;;;;;;;4.58;100.00;102960.00;6306308;22;20011;-83
2023/12/18 04:25:03;;;;;;;39.38;23.23;;;;;;;4.59;100.00;102959.03;6306096;22;20003;-83
2023/12/18 04:27:28;;;;;;;31.05;18.67;;;;;;;4.60;100.00;102963.34;6305959;22;20010;-82
2023/12/18 04:29:53;;;;;;;33.80;22.98;;;;;;;4.58;100.00;102950.22;6306245;22;19999;-84
2023/12/18 04:32:19;;;;;;;40.38;20.92;;;;;;;4.53;100.00;102944.47;6305827;22;20007;-84
2023/12/18 04:34:44;;;;;;;29.67;17.38;;;;;;;4.62;100.00;102956.97;6306154;22;20050;-83
2023/12/18 04:37:09;;;;;;;32.22;17.63;;;;;;;4.62;100.00;102962.28;6304607;22;20011;-83
2023/12/18 04:39:36;;;;;;;33.75;19.23;;;;;;;4.59;100.00;102956.38;6305994;22;20413;-85
2023/12/18 04:42:01;;;;;;;33.47;19.13;;;;;;;4.61;100.00;102941.19;6305922;22;20007;-84
2023/12/18 04:44:28;;;;;;;25.13;16.33;;;;;;;4.71;100.00;102954.56;6305947;22;20015;-84
2023/12/18 04:46:54;;;;;;;34.00;18.02;;;;;;;4.62;100.00;102945.53;6304380;22;20015;-84
2023/12/18 04:49:19;;;;;;;31.23;15.73;;;;;;;4.64;100.00;102951.56;6306024;22;20060;-83
2023/12/18 04:51:44;;;;;;;27.40;14.98;;;;;;;4.72;100.00;102937.72;6305985;22;20420;-84
2023/12/18 04:54:10;;;;;;;30.70;17.33;;;;;;;4.68;100.00;102937.13;6304297;22;20331;-83
2023/12/18 04:56:35;;;;;;;27.05;15.07;;;;;;;4.76;100.00;102921.44;6306078;22;20367;-84
2023/12/18 04:59:01;;;;;;;30.38;16.85;;;;;;;4.65;100.00;102917.00;6304223;22;20094;-84
2023/12/18 05:01:28;;;;;;;31.75;18.00;;;;;;;4.73;100.00;102934.94;6304392;22;20383;-83
2023/12/18 05:03:53;;;;;;;30.63;17.95;;;;;;;4.73;100.00;102936.75;6306040;22;20060;-82
2023/12/18 05:06:23;;;;;;;32.90;18.02;;;;;;;4.79;100.00;102939.72;6304261;22;20416;-84
2023/12/18 05:08:49;;;;;;;30.73;16.13;;;;;;;4.75;100.00;102943.59;6305903;22;20332;-82
2023/12/18 05:11:18;;;;;;;32.05;17.05;;;;;;;4.84;100.00;102944.66;6305985;22;20003;-83
2023/12/18 05:13:44;;;;;;;28.35;18.45;;;;;;;4.76;100.00;102937.31;6305625;22;20011;-84
2023/12/18 05:16:09;;;;;;;29.95;18.17;;;;;;;4.74;100.00;102927.81;6305822;22;20420;-82
2023/12/18 05:18:35;;;;;;;31.75;15.93;;;;;;;4.88;100.00;102943.44;6305779;22;20052;-83
2023/12/18 05:21:00;;;;;;;34.03;16.60;;;;;;;4.84;100.00;102936.69;6305664;22;20007;-83
2023/12/18 05:23:26;;;;;;;35.65;18.80;;;;;;;4.80;100.00;102940.56;6305897;22;20312;-84
2023/12/18 05:25:51;;;;;;;40.08;21.08;;;;;;;4.79;100.00;102926.47;6305559;22;19999;-84
2023/12/18 05:28:18;;;;;;;29.27;15.85;;;;;;;4.84;100.00;102937.53;6304396;22;20034;-83
2023/12/18 05:30:43;;;;;;;32.92;16.08;;;;;;;4.78;100.00;102938.03;6305682;22;20419;-82
2023/12/18 05:33:10;;;;;;;31.70;17.02;;;;;;;4.79;100.00;102936.22;6305627;22;20003;-84
2023/12/18 05:35:35;;;;;;;35.40;17.65;;;;;;;4.82;100.00;102944.78;6305643;22;20003;-82
2023/12/18 05:38:00;;;;;;;32.83;16.45;;;;;;;4.80;100.00;102937.91;6305142;22;20013;-81
2023/12/18 05:40:25;;;;;;;27.85;16.35;;;;;;;4.77;100.00;102935.53;6305626;22;20009;-82
2023/12/18 05:42:51;;;;;;;34.08;18.92;;;;;;;4.81;100.00;102944.91;6305597;22;20391;-83
2023/12/18 05:45:16;;;;;;;32.58;18.65;;;;;;;4.84;100.00;102952.59;6305470;22;20407;-86
2023/12/18 05:47:42;;;;;;;33.58;16.35;;;;;;;4.74;100.00;102947.22;6305608;22;20030;-83
2023/12/18 05:50:08;;;;;;;34.53;16.95;;;;;;;4.74;100.00;102938.41;6305700;22;19999;-85
2023/12/18 05:52:33;;;;;;;30.92;18.38;;;;;;;4.76;100.00;102939.97;6304331;22;20068;-86
2023/12/18 05:54:58;;;;;;;30.08;16.73;;;;;;;4.71;100.00;102944.81;6304467;22;20106;-84
2023/12/18 05:57:24;;;;;;;29.02;16.55;;;;;;;4.69;100.00;102933.50;6305964;22;20078;-86
2023/12/18 05:59:49;;;;;;;27.38;16.63;;;;;;;4.72;100.00;102948.31;6304269;22;20417;-85
2023/12/18 06:02:14;;;;;;;33.78;20.33;;;;;;;4.72;100.00;102940.34;6305777;22;20010;-83
2023/12/18 06:04:43;;;;;;;32.72;19.42;;;;;;;4.71;100.00;102938.66;6304565;22;20007;-83
2023/12/18 06:07:09;;;;;;;34.25;19.13;;;;;;;4.71;100.00;102934.22;6304464;22;20377;-82
2023/12/18 06:09:34;;;;;;;35.40;16.85;;;;;;;4.74;100.00;102939.25;6305682;22;19999;-82
2023/12/18 06:11:59;;;;;;;41.08;20.52;;;;;;;4.68;100.00;102933.63;6304162;22;20090;-82
2023/12/18 06:14:25;;;;;;;30.33;17.85;;;;;;;4.69;100.00;102941.44;6303668;22;20038;-80
2023/12/18 06:16:50;;;;;;;37.17;21.00;;;;;;;4.69;100.00;102941.44;6303790;22;20306;-81
2023/12/18 06:19:15;;;;;;;37.80;17.83;;;;;;;4.73;100.00;102936.75;6303685;22;20309;-82
2023/12/18 06:21:41;;;;;;;38.15;18.70;;;;;;;4.70;100.00;102939.63;6303800;22;20332;-81
2023/12/18 06:24:07;;;;;;;35.38;18.67;;;;;;;4.68;100.00;102933.63;6305480;22;20011;-83
2023/12/18 06:26:32;;;;;;;36.42;20.30;;;;;;;4.68;100.00;102925.69;6303749;22;20000;-82
2023/12/18 06:28:58;;;;;;;29.20;14.95;;;;;;;4.68;100.00;102930.97;6303778;22;20003;-82
2023/12/18 06:31:23;;;;;;;36.42;20.13;;;;;;;4.65;100.00;102935.56;6305512;22;20007;-84
2023/12/18 06:33:48;;;;;;;36.35;19.83;;;;;;;4.64;100.00;102930.38;6305245;22;20035;-83
2023/12/18 06:36:20;;;;;;;32.70;20.10;;;;;;;4.73;100.00;102934.94;6303802;22;20447;-83
2023/12/18 06:38:46;;;;;;;41.25;22.08;;;;;;;4.75;100.00;102935.66;6305422;22;20003;-85
2023/12/18 06:41:12;;;;;;;31.95;15.55;;;;;;;4.79;100.00;102939.72;6305477;22;20332;-83
2023/12/18 06:43:38;;;;;;;34.25;18.13;;;;;;;4.79;100.00;102933.59;6303518;22;20409;-83
2023/12/18 06:46:04;;;;;;;34.33;19.60;;;;;;;4.76;100.00;102925.88;6305257;22;20430;-83
2023/12/18 06:48:30;;;;;;;29.83;16.35;;;;;;;4.80;100.00;102932.63;6303644;22;20007;-82
2023/12/18 06:50:55;;;;;;;34.42;18.40;;;;;;;4.75;100.00;102924.19;6304876;22;20074;-84
2023/12/18 06:53:20;;;;;;;36.30;18.88;;;;;;;4.81;100.00;102935.13;6306577;22;20011;-84
2023/12/18 06:55:46;;;;;;;34.08;16.08;;;;;;;4.82;100.00;102942.13;6304972;22;20049;-83
2023/12/18 06:58:11;;;;;;;33.78;18.17;;;;;;;4.84;100.00;102942.84;6305421;22;20011;-83
2023/12/18 07:00:36;;;;;;;35.50;19.45;;;;;;;4.80;100.00;102929.97;6305190;22;20007;-85
2023/12/18 07:03:02;;;;;;;38.97;22.40;;;;;;;4.80;100.00;102929.97;6306617;22;20007;-77
2023/12/18 07:05:29;;;;;;;38.67;20.58;;;;;;;4.81;100.00;102939.59;6306562;22;20423;-89
2023/12/18 07:07:55;;;;;;;31.90;18.17;;;;;;;4.79;100.00;102941.53;6306762;22;20007;-84
2023/12/18 07:10:21;;;;;;;33.03;18.00;;;;;;;4.82;100.00;102942.13;6306745;22;20007;-85
2023/12/18 07:12:46;;;;;;;35.30;16.67;;;;;;;4.83;100.00;102945.63;6306696;22;20007;-83
2023/12/18 07:15:12;;;;;;;33.03;16.10;;;;;;;4.75;100.00;102940.94;6306456;22;20408;-83
2023/12/18 07:17:37;;;;;;;34.92;21.65;;;;;;;4.74;100.00;102949.03;6306458;22;20011;-85
2023/12/18 07:20:05;;;;;;;32.75;16.60;;;;;;;4.81;100.00;102953.69;6306335;22;20046;-81
2023/12/18 07:22:33;;;;;;;30.58;14.98;;;;;;;4.83;100.00;102956.22;6304780;22;20010;-84
2023/12/18 07:24:58;;;;;;;29.98;17.05;;;;;;;4.80;100.00;102954.66;6304583;22;20102;-81
2023/12/18 07:27:23;;;;;;;32.85;18.73;;;;;;;4.82;100.00;102965.13;6304794;22;20053;-81
2023/12/18 07:29:49;;;;;;;40.88;20.08;;;;;;;4.83;100.00;102954.41;6306248;22;20014;-82
2023/12/18 07:32:14;;;;;;;34.88;19.63;;;;;;;4.79;100.00;102960.94;6304748;22;20003;-82
2023/12/18 07:34:39;;;;;;;41.20;20.48;;;;;;;4.71;100.00;102939.50;6306047;22;20320;-82
2023/12/18 07:37:06;;;;;;;37.20;19.63;;;;;;;4.71;100.00;102943.97;6306336;22;20469;-84
2023/12/18 07:39:31;;;;;;;35.72;19.23;;;;;;;4.78;100.00;102961.91;6306170;22;20448;-83
2023/12/18 07:41:56;;;;;;;35.63;17.30;;;;;;;4.80;100.00;102957.31;6306165;22;19999;-82
2023/12/18 07:44:22;;;;;;;35.25;19.92;;;;;;;4.82;100.00;102957.19;6306117;22;20057;-83
2023/12/18 07:46:50;;;;;;;39.78;22.02;;;;;;;4.82;100.00;102962.50;6304496;22;20052;-81
2023/12/18 07:49:16;;;;;;;38.30;20.85;;;;;;;4.78;100.00;102943.34;6306103;22;20338;-83
2023/12/18 07:51:41;;;;;;;29.70;16.52;;;;;;;4.77;100.00;102938.16;6304547;22;20003;-81
2023/12/18 07:54:06;;;;;;;38.92;22.25;;;;;;;4.81;100.00;102950.19;6305976;22;20039;-82
2023/12/18 07:56:32;;;;;;;43.10;22.65;;;;;;;4.87;100.00;102949.69;6304413;22;20030;-81
2023/12/18 07:58:57;;;;;;;38.28;21.58;;;;;;;4.95;100.00;102953.44;6306080;22;20011;-81
2023/12/18 08:01:22;;;;;;;40.65;23.55;;;;;;;4.85;100.00;102952.47;6305751;22;20134;-80
2023/12/18 08:03:48;;;;;;;30.52;17.85;;;;;;;4.90;100.00;102952.09;6306033;22;20011;-81
2023/12/18 08:06:13;;;;;;;34.05;19.73;;;;;;;4.86;100.00;102934.75;6306099;22;20013;-82
2023/12/18 08:08:39;;;;;;;33.53;18.42;;;;;;;4.92;100.00;102945.72;6304337;22;20008;-83
2023/12/18 08:11:04;;;;;;;35.55;18.35;;;;;;;4.92;100.00;102932.47;6304363;22;19999;-82
2023/12/18 08:13:29;;;;;;;42.88;21.73;;;;;;;4.96;100.00;102935.72;6305969;22;20061;-81
2023/12/18 08:15:55;;;;;;;36.33;19.88;;;;;;;4.94;100.00;102930.53;6304299;22;20056;-83
2023/12/18 08:18:20;;;;;;;37.17;21.10;;;;;;;4.93;100.00;102917.41;6306089;22;20074;-82
2023/12/18 08:20:45;;;;;;;35.88;18.65;;;;;;;4.98;100.00;102924.03;6305885;22;20003;-82
2023/12/18 08:23:11;;;;;;;40.38;18.40;;;;;;;5.04;100.00;102924.47;6304348;22;20061;-81
2023/12/18 08:25:36;;;;;;;43.33;22.55;;;;;;;5.03;100.00;102928.09;6304325;22;20424;-82
2023/12/18 08:28:01;;;;;;;32.85;18.77;;;;;;;5.08;100.00;102924.09;6306150;22;20003;-80
2023/12/18 08:30:27;;;;;;;31.92;17.05;;;;;;;5.10;100.00;102927.47;6305984;22;20003;-82
2023/12/18 08:32:52;;;;;;;30.95;15.43;;;;;;;5.17;100.00;102919.81;6305791;22;20145;-79
2023/12/18 08:35:17;;;;;;;36.22;17.70;;;;;;;5.23;100.00;102917.53;6305825;22;20007;-79
2023/12/18 08:37:43;;;;;;;32.50;17.10;;;;;;;5.23;100.00;102925.50;6304281;22;20007;-80
2023/12/18 08:40:09;;;;;;;41.97;19.95;;;;;;;5.25;100.00;102935.97;6304292;22;20094;-81
2023/12/18 08:42:34;;;;;;;30.25;17.38;;;;;;;5.22;100.00;102921.16;6305962;22;20411;-81
2023/12/18 08:44:59;;;;;;;33.28;17.23;;;;;;;5.29;100.00;102911.72;6305835;22;20042;-80
2023/12/18 08:47:26;;;;;;;31.85;18.27;;;;;;;5.23;100.00;102914.88;6305682;22;20070;-80
2023/12/18 08:49:52;;;;;;;36.97;19.58;;;;;;;5.29;100.00;102916.16;6305709;22;20007;-80
2023/12/18 08:52:17;;;;;;;33.92;18.73;;;;;;;5.33;100.00;102911.44;6305838;22;20056;-80
2023/12/18 08:54:42;;;;;;;34.42;17.60;;;;;;;5.39;100.00;102914.44;6305609;22;20007;-81
2023/12/18 08:57:07;;;;;;;34.13;20.00;;;;;;;5.34;100.00;102915.78;6305719;22;20004;-80
2023/12/18 08:59:33;;;;;;;30.42;15.82;;;;;;;5.41;100.00;102928.41;6305682;22;20018;-81
2023/12/18 09:01:58;;;;;;;28.38;15.77;;;;;;;5.32;100.00;102907.97;6305626;22;20004;-81
2023/12/18 09:04:24;;;;;;;28.35;16.75;;;;;;;5.34;100.00;102908.66;6305816;22;20007;-81
2023/12/18 09:06:49;;;;;;;33.75;18.83;;;;;;;5.25;100.00;102904.97;6305705;22;20030;-79
2023/12/18 09:09:15;;;;;;;38.67;19.77;;;;;;;5.35;100.00;102915.66;6304127;22;20078;-79
2023/12/18 09:11:40;;;;;;;34.30;18.67;;;;;;;5.26;100.00;102895.22;6304196;22;20078;-81
2023/12/18 09:14:07;;;;;;;33.50;17.73;;;;;;;5.37;100.00;102916.38;6304727;22;20409;-79
2023/12/18 09:16:32;;;;;;;31.38;16.90;;;;;;;5.44;100.00;102904.25;6305675;22;20078;-80
2023/12/18 09:18:58;;;;;;;35.88;20.00;;;;;;;5.51;100.00;102905.44;6305612;22;20031;-80
2023/12/18 09:21:28;;;;;;;33.40;19.65;;;;;;;5.62;100.00;102909.00;6305611;22;20435;-79
2023/12/18 09:23:53;;;;;;;39.47;22.08;;;;;;;5.57;100.00;102896.97;6304091;22;19999;-81
2023/12/18 09:26:20;;;;;;;25.80;14.70;;;;;;;5.67;100.00;102904.97;6304007;22;20336;-80
2023/12/18 09:28:46;;;;;;;33.85;19.63;;;;;;;5.55;100.00;102913.97;6305535;22;20023;-79
2023/12/18 09:31:11;;;;;;;29.52;16.25;;;;;;;5.58;100.00;102913.72;6305645;22;20305;-80
2023/12/18 09:33:36;;;;;;;28.40;16.45;;;;;;;5.50;100.00;102913.53;6305623;22;20003;-80
2023/12/18 09:36:02;;;;;;;29.65;15.75;;;;;;;5.58;100.00;102924.34;6305697;22;20113;-81
2023/12/18 09:38:28;;;;;;;28.15;16.13;;;;;;;5.56;100.00;102921.81;6305822;22;20078;-80
2023/12/18 09:40:53;;;;;;;27.98;16.23;;;;;;;5.54;100.00;102917.63;6305598;22;20030;-80
2023/12/18 09:43:20;;;;;;;35.65;19.35;;;;;;;5.49;100.00;102920.66;6305502;22;20277;-80
2023/12/18 09:45:47;;;;;;;32.40;17.27;;;;;;;5.60;100.00;102922.41;6304009;22;19999;-79
2023/12/18 09:48:13;;;;;;;35.05;19.88;;;;;;;5.51;100.00;102910.75;6305363;22;20057;-79
2023/12/18 09:50:39;;;;;;;28.10;17.05;;;;;;;5.50;100.00;102905.56;6305554;22;20420;-80
2023/12/18 09:53:10;;;;;;;33.33;18.95;;;;;;;5.56;100.00;102910.34;6303922;22;20018;-79
2023/12/18 09:55:36;;;;;;;34.60;18.77;;;;;;;5.61;100.00;102916.13;6305558;22;20015;-80
2023/12/18 09:58:02;;;;;;;28.58;17.48;;;;;;;5.71;100.00;102911.69;6305606;22;20324;-80
2023/12/18 10:00:28;;;;;;;29.13;16.08;;;;;;;5.70;100.00;102907.34;6303862;22;20328;-80
2023/12/18 10:02:55;;;;;;;31.33;17.25;;;;;;;5.60;100.00;102903.81;6303845;22;20007;-81
2023/12/18 10:05:20;;;;;;;36.00;19.67;;;;;;;5.50;100.00;102903.78;6305572;22;20003;-81
2023/12/18 10:07:46;;;;;;;29.90;16.98;;;;;;;5.52;100.00;102903.63;6305430;22;20003;-79
2023/12/18 10:10:11;;;;;;;36.35;22.42;;;;;;;5.47;100.00;102908.47;6305421;22;20046;-79
2023/12/18 10:12:38;;;;;;;30.85;19.63;;;;;;;5.49;100.00;102902.09;6305261;22;20006;-77
2023/12/18 10:15:06;;;;;;;39.67;24.67;;;;;;;5.44;100.00;102892.81;6303772;22;20428;-80
2023/12/18 10:17:33;;;;;;;36.90;17.73;;;;;;;5.43;100.00;102888.47;6303674;22;20019;-81
2023/12/18 10:20:02;;;;;;;37.83;19.52;;;;;;;5.47;100.00;102892.53;6305205;22;20522;-80
2023/12/18 10:22:28;;;;;;;35.22;21.60;;;;;;;5.58;100.00;102897.81;6305734;22;20012;-80
2023/12/18 10:24:53;;;;;;;29.85;18.30;;;;;;;5.59;100.00;102900.31;6304980;22;20572;-81
2023/12/18 10:27:19;;;;;;;34.58;18.63;;;;;;;5.50;100.00;102897.63;6305254;22;20082;-80
2023/12/18 10:29:45;;;;;;;30.98;19.40;;;;;;;5.46;100.00;102898.81;6305486;22;20006;-78
2023/12/18 10:32:11;;;;;;;33.63;19.35;;;;;;;5.43;100.00;102897.28;6305232;22;20011;-79
2023/12/18 10:34:37;;;;;;;33.10;19.38;;;;;;;5.36;100.00;102905.88;6305119;22;20439;-81
2023/12/18 10:37:03;;;;;;;32.05;14.77;;;;;;;5.35;100.00;102888.28;6303441;22;20078;-80
2023/12/18 10:39:30;;;;;;;31.50;18.13;;;;;;;5.33;100.00;102882.28;6305119;22;20034;-81
2023/12/18 10:41:59;;;;;;;31.25;17.98;;;;;;;5.41;100.00;102872.69;6305229;22;20421;-80
2023/12/18 10:44:25;;;;;;;36.95;19.27;;;;;;;5.40;100.00;102876.31;6305134;22;20011;-80
2023/12/18 10:46:53;;;;;;;35.13;20.50;;;;;;;5.41;100.00;102874.50;6305065;22;20004;-78
2023/12/18 10:49:20;;;;;;;37.22;22.30;;;;;;;5.41;100.00;102859.41;6303515;22;20011;-80
2023/12/18 10:51:46;;;;;;;32.55;18.40;;;;;;;5.39;100.00;102866.69;6305064;22;20003;-79
2023/12/18 10:54:12;;;;;;;33.40;16.60;;;;;;;5.49;100.00;102850.81;6304965;22;20119;-80
2023/12/18 10:56:39;;;;;;;32.42;17.50;;;;;;;5.64;100.00;102859.28;6305055;22;20416;-81
2023/12/18 10:59:06;;;;;;;33.53;17.05;;;;;;;5.58;100.00;102861.50;6304854;22;20019;-79
2023/12/18 11:01:34;;;;;;;36.25;17.33;;;;;;;5.45;100.00;102838.78;6304935;22;20330;-80